Weather at Hamad International Airport

Public forecast

Using degrees Celsius for public forecast. Weather courtesy of forecast.io.

Current aviation weather report (METAR) for Hamad International Airport

2024/06/22 09:00 (retrieved 24 minutes ago)

OTHH 220900Z AUTO 09010KT CAVOK 40/24 Q0996 NOSIG

Aviation forecast (TAF) for Hamad International Airport

2024/06/22 06:00 (retrieved 3 hours ago)

TAF OTHH 220509Z 2206/2312 03007KT 8000 NSC TEMPO 2206/2209 VRB03KT TEMPO 2207/2220 12007KT